createdAt,value
2023-05-06T00:02:29.613Z,9.20
2023-05-06T00:05:03.507Z,12.60
2023-05-06T00:07:37.125Z,9.17
2023-05-06T00:10:17.186Z,9.67
2023-05-06T00:12:48.484Z,9.43
2023-05-06T00:15:17.811Z,8.20
2023-05-06T00:17:47.048Z,8.23
2023-05-06T00:20:18.110Z,8.07
2023-05-06T00:22:52.746Z,13.20
2023-05-06T00:25:23.855Z,10.17
2023-05-06T00:27:54.636Z,8.30
2023-05-06T00:30:26.408Z,8.77
2023-05-06T00:33:01.524Z,8.93
2023-05-06T00:35:41.937Z,8.30
2023-05-06T00:38:15.341Z,9.33
2023-05-06T00:40:46.664Z,8.97
2023-05-06T00:43:17.646Z,7.77
2023-05-06T00:46:01.024Z,12.37
2023-05-06T00:48:32.676Z,9.03
2023-05-06T00:51:04.400Z,14.53
2023-05-06T00:53:34.620Z,7.60
2023-05-06T00:56:04.812Z,7.63
2023-05-06T00:58:40.501Z,9.70
2023-05-06T01:01:10.564Z,8.90
2023-05-06T01:03:44.873Z,8.73
2023-05-06T01:06:20.723Z,11.00
2023-05-06T01:08:59.852Z,8.10
2023-05-06T01:11:38.667Z,9.97
2023-05-06T01:14:24.167Z,8.23
2023-05-06T01:16:57.386Z,8.53
2023-05-06T01:19:38.928Z,7.60
2023-05-06T01:22:19.012Z,7.67
2023-05-06T01:24:50.805Z,8.07
2023-05-06T01:27:31.335Z,8.53
2023-05-06T01:30:02.406Z,7.70
2023-05-06T01:32:42.335Z,6.50
2023-05-06T01:35:21.803Z,9.63
2023-05-06T01:37:57.379Z,6.20
2023-05-06T01:40:32.800Z,8.17
2023-05-06T01:43:03.573Z,4.50
2023-05-06T01:45:35.150Z,4.60
2023-05-06T01:48:09.000Z,5.63
2023-05-06T01:50:46.928Z,4.47
2023-05-06T01:53:17.294Z,4.47
2023-05-06T01:56:02.829Z,4.20
2023-05-06T01:58:34.987Z,6.93
2023-05-06T02:01:06.595Z,2.20
2023-05-06T02:03:37.682Z,2.93
2023-05-06T02:06:06.097Z,3.13
2023-05-06T02:08:40.703Z,1.80
2023-05-06T02:11:19.028Z,2.60
2023-05-06T02:14:05.226Z,3.37
2023-05-06T02:16:36.588Z,1.07
2023-05-06T02:19:07.815Z,1.00
2023-05-06T02:21:37.935Z,4.30
2023-05-06T02:24:24.583Z,2.40
2023-05-06T02:26:57.125Z,1.20
2023-05-06T02:29:34.135Z,0.93
2023-05-06T02:32:05.348Z,1.23
2023-05-06T02:34:35.630Z,0.93
2023-05-06T02:37:05.815Z,1.10
2023-05-06T02:39:35.418Z,0.90
2023-05-06T02:42:07.275Z,1.93
2023-05-06T02:44:42.449Z,3.73
2023-05-06T02:47:11.108Z,1.77
2023-05-06T02:49:42.205Z,1.07
2023-05-06T02:52:13.272Z,0.80
2023-05-06T02:54:50.041Z,3.37
2023-05-06T02:57:26.540Z,0.77
2023-05-06T02:59:56.610Z,0.90
2023-05-06T03:02:28.304Z,0.80
2023-05-06T03:04:57.933Z,0.80
2023-05-06T03:07:28.177Z,2.27
2023-05-06T03:09:56.774Z,0.70
2023-05-06T03:12:29.085Z,1.07
2023-05-06T03:14:59.263Z,4.30
2023-05-06T03:17:28.216Z,0.87
2023-05-06T03:20:02.988Z,0.80
2023-05-06T03:22:33.968Z,1.03
2023-05-06T03:25:05.448Z,1.07
2023-05-06T03:27:57.641Z,2.10
2023-05-06T03:30:27.024Z,0.80
2023-05-06T03:32:59.065Z,0.70
2023-05-06T03:35:34.161Z,1.20
2023-05-06T03:38:05.482Z,1.53
2023-05-06T03:40:42.834Z,0.63
2023-05-06T03:43:16.328Z,3.07
2023-05-06T03:45:50.612Z,1.30
2023-05-06T03:48:21.739Z,0.80
2023-05-06T03:50:52.074Z,0.60
2023-05-06T03:53:23.146Z,0.80
2023-05-06T03:56:01.318Z,0.90
2023-05-06T03:58:36.678Z,1.30
2023-05-06T04:01:07.776Z,0.73
2023-05-06T04:03:38.436Z,0.80
2023-05-06T04:06:09.713Z,2.20
2023-05-06T04:08:38.290Z,1.10
2023-05-06T04:11:22.414Z,0.97
2023-05-06T04:14:05.547Z,1.73
2023-05-06T04:16:35.295Z,1.17
2023-05-06T04:19:08.380Z,1.37
2023-05-06T04:21:39.888Z,0.60
2023-05-06T04:24:19.490Z,1.03
2023-05-06T04:26:49.726Z,0.80
2023-05-06T04:29:25.661Z,0.70
2023-05-06T04:32:11.759Z,0.90
2023-05-06T04:34:42.803Z,1.17
2023-05-06T04:37:17.731Z,1.23
2023-05-06T04:39:50.296Z,0.87
2023-05-06T04:42:21.991Z,1.10
2023-05-06T04:45:09.812Z,2.27
2023-05-06T04:47:42.453Z,1.17
2023-05-06T04:50:13.034Z,0.90
2023-05-06T04:52:44.670Z,1.30
2023-05-06T04:55:15.531Z,0.93
2023-05-06T04:57:52.807Z,2.10
2023-05-06T05:00:31.076Z,1.30
2023-05-06T05:03:10.055Z,1.10
2023-05-06T05:05:39.795Z,1.30
2023-05-06T05:08:25.178Z,1.00
2023-05-06T05:10:53.755Z,1.07
2023-05-06T05:13:26.528Z,1.20
2023-05-06T05:16:00.972Z,1.00
2023-05-06T05:18:35.785Z,1.93
2023-05-06T05:21:12.185Z,1.17
2023-05-06T05:23:42.729Z,1.10
2023-05-06T05:26:16.393Z,0.97
2023-05-06T05:28:49.841Z,1.23
2023-05-06T05:31:34.882Z,1.27
2023-05-06T05:34:10.485Z,1.37
2023-05-06T05:36:46.957Z,1.77
2023-05-06T05:39:17.743Z,2.60
2023-05-06T05:41:57.570Z,2.83
2023-05-06T05:44:39.843Z,3.83
2023-05-06T05:47:25.891Z,3.93
2023-05-06T05:49:54.586Z,4.53
2023-05-06T05:52:24.889Z,6.00
2023-05-06T05:54:53.478Z,4.10
2023-05-06T05:57:24.561Z,4.80
2023-05-06T05:59:55.930Z,4.87
2023-05-06T06:02:35.606Z,5.80
2023-05-06T06:05:12.901Z,7.20
2023-05-06T06:07:43.551Z,4.80
2023-05-06T06:10:16.825Z,5.30
2023-05-06T06:12:52.106Z,6.50
2023-05-06T06:15:26.979Z,8.40
2023-05-06T06:17:59.919Z,5.07
2023-05-06T06:20:46.315Z,5.07
2023-05-06T06:23:16.782Z,4.63
2023-05-06T06:25:48.625Z,5.00
2023-05-06T06:28:18.994Z,5.33
2023-05-06T06:30:51.090Z,4.63
2023-05-06T06:33:23.683Z,4.07
2023-05-06T06:35:55.878Z,8.27
2023-05-06T06:38:29.419Z,3.93
2023-05-06T06:40:57.673Z,3.50
2023-05-06T06:43:29.427Z,3.07
2023-05-06T06:46:02.233Z,3.13
2023-05-06T06:48:34.341Z,3.60
2023-05-06T06:51:03.747Z,3.30
2023-05-06T06:53:35.634Z,2.70
2023-05-06T06:56:04.648Z,3.17
2023-05-06T06:58:34.655Z,2.13
2023-05-06T07:01:05.119Z,3.07
2023-05-06T07:03:39.535Z,5.23
2023-05-06T07:06:07.672Z,2.60
2023-05-06T07:08:36.340Z,2.83
2023-05-06T07:11:08.300Z,2.30
2023-05-06T07:13:39.104Z,4.80
2023-05-06T07:16:07.423Z,2.33
2023-05-06T07:18:36.884Z,2.37
2023-05-06T07:21:06.407Z,2.37
2023-05-06T07:23:36.951Z,1.70
2023-05-06T07:26:07.546Z,2.70
2023-05-06T07:28:38.246Z,1.90
2023-05-06T07:31:20.981Z,1.40
2023-05-06T07:33:53.271Z,2.93
2023-05-06T07:36:22.544Z,1.30
2023-05-06T07:38:53.046Z,3.17
2023-05-06T07:41:26.592Z,1.77
2023-05-06T07:44:05.996Z,1.43
2023-05-06T07:46:35.826Z,2.50
2023-05-06T07:49:11.968Z,1.97
2023-05-06T07:51:43.126Z,2.87
2023-05-06T07:54:17.640Z,2.67
2023-05-06T07:56:48.371Z,4.60
2023-05-06T07:59:26.328Z,2.80
2023-05-06T08:01:54.549Z,1.53
2023-05-06T08:04:25.068Z,1.63
2023-05-06T08:06:54.761Z,1.37
2023-05-06T08:09:29.021Z,1.60
2023-05-06T08:12:00.876Z,1.40
2023-05-06T08:14:29.720Z,1.97
2023-05-06T08:16:59.969Z,1.57
2023-05-06T08:19:34.544Z,1.20
2023-05-06T08:22:05.272Z,2.30
2023-05-06T08:24:35.998Z,1.80
2023-05-06T08:27:07.758Z,1.77
2023-05-06T08:29:36.704Z,1.83
2023-05-06T08:32:08.445Z,1.50
2023-05-06T08:34:39.032Z,1.10
2023-05-06T08:37:11.484Z,4.20
2023-05-06T08:39:43.552Z,2.00
2023-05-06T08:42:14.680Z,5.90
2023-05-06T08:44:44.277Z,5.23
2023-05-06T08:47:14.020Z,3.00
2023-05-06T08:49:49.295Z,2.30
2023-05-06T08:52:28.050Z,2.60
2023-05-06T08:55:05.233Z,3.20
2023-05-06T08:57:36.211Z,1.70
2023-05-06T09:00:11.992Z,1.53
2023-05-06T09:02:43.522Z,1.70
2023-05-06T09:05:16.318Z,4.10
2023-05-06T09:07:47.740Z,2.63
2023-05-06T09:10:19.349Z,1.30
2023-05-06T09:12:55.700Z,1.23
2023-05-06T09:15:42.920Z,3.53
2023-05-06T09:18:20.057Z,1.53
2023-05-06T09:20:58.802Z,1.50
2023-05-06T09:23:32.040Z,4.20
2023-05-06T09:26:00.186Z,2.43
2023-05-06T09:28:36.685Z,1.17
2023-05-06T09:31:06.113Z,1.70
2023-05-06T09:33:37.399Z,1.93
2023-05-06T09:36:13.489Z,1.80
2023-05-06T09:38:42.444Z,2.70
2023-05-06T09:41:11.259Z,1.10
2023-05-06T09:43:42.051Z,5.43
2023-05-06T09:46:12.743Z,1.37
2023-05-06T09:48:50.887Z,1.30
2023-05-06T09:51:26.902Z,1.50
2023-05-06T09:53:57.011Z,1.70
2023-05-06T09:56:25.912Z,1.90
2023-05-06T09:58:56.489Z,1.60
2023-05-06T10:01:35.946Z,1.67
2023-05-06T10:04:09.506Z,2.10
2023-05-06T10:06:47.309Z,2.97
2023-05-06T10:09:18.308Z,1.47
2023-05-06T10:11:56.050Z,1.40
2023-05-06T10:14:26.408Z,4.40
2023-05-06T10:16:57.991Z,1.80
2023-05-06T10:19:31.500Z,1.40
2023-05-06T10:22:11.158Z,2.40
2023-05-06T10:24:55.738Z,1.70
2023-05-06T10:27:36.804Z,1.63
2023-05-06T10:30:10.167Z,1.90
2023-05-06T10:32:45.711Z,1.67
2023-05-06T10:35:23.035Z,1.70
2023-05-06T10:37:59.384Z,1.50
2023-05-06T10:40:33.202Z,1.97
2023-05-06T10:43:29.309Z,1.33
2023-05-06T10:46:12.618Z,1.93
2023-05-06T10:49:09.258Z,2.43
2023-05-06T10:51:43.344Z,2.07
2023-05-06T10:54:24.111Z,2.20
2023-05-06T10:57:11.783Z,2.57
2023-05-06T10:59:47.821Z,1.63
2023-05-06T11:02:29.395Z,2.07
2023-05-06T11:05:02.297Z,1.73
2023-05-06T11:07:34.249Z,1.60
2023-05-06T11:10:08.197Z,1.43
2023-05-06T11:12:56.840Z,2.07
2023-05-06T11:15:43.773Z,1.30
2023-05-06T11:18:46.722Z,1.40
2023-05-06T11:21:39.889Z,1.40
2023-05-06T11:24:12.417Z,1.60
2023-05-06T11:26:48.493Z,1.43
2023-05-06T11:29:18.985Z,1.40
2023-05-06T11:31:55.876Z,1.30
2023-05-06T11:34:27.601Z,1.20
2023-05-06T11:37:15.385Z,1.23
2023-05-06T11:39:52.114Z,2.10
2023-05-06T11:42:32.563Z,2.07
2023-05-06T11:45:05.367Z,1.73
2023-05-06T11:47:34.289Z,1.70
2023-05-06T11:50:15.107Z,1.93
2023-05-06T11:52:48.070Z,2.30
2023-05-06T11:55:19.565Z,2.00
2023-05-06T11:57:49.212Z,3.80
2023-05-06T12:00:23.531Z,2.23
2023-05-06T12:02:59.591Z,4.03
2023-05-06T12:05:33.563Z,2.00
2023-05-06T12:08:02.220Z,3.00
2023-05-06T12:10:32.020Z,1.93
2023-05-06T12:13:17.970Z,2.17
2023-05-06T12:15:47.933Z,2.07
2023-05-06T12:18:19.201Z,1.70
2023-05-06T12:20:51.077Z,2.60
2023-05-06T12:23:22.108Z,2.30
2023-05-06T12:26:04.922Z,3.03
2023-05-06T12:28:43.106Z,2.03
2023-05-06T12:31:21.419Z,2.73
2023-05-06T12:33:56.097Z,3.00
2023-05-06T12:36:28.096Z,2.20
2023-05-06T12:39:07.997Z,2.10
2023-05-06T12:41:42.292Z,3.17
2023-05-06T12:44:36.397Z,2.10
2023-05-06T12:47:14.620Z,1.47
2023-05-06T12:49:48.822Z,4.73
2023-05-06T12:52:28.795Z,2.30
2023-05-06T12:54:57.663Z,1.90
2023-05-06T12:57:36.271Z,1.67
2023-05-06T13:00:10.876Z,2.40
2023-05-06T13:02:49.984Z,1.40
2023-05-06T13:05:34.377Z,1.70
2023-05-06T13:08:04.735Z,1.77
2023-05-06T13:10:35.195Z,2.07
2023-05-06T13:13:05.668Z,1.73
2023-05-06T13:15:39.696Z,2.40
2023-05-06T13:18:15.161Z,2.70
2023-05-06T13:20:48.530Z,1.50
2023-05-06T13:23:20.129Z,1.37
2023-05-06T13:26:03.578Z,1.67
2023-05-06T13:28:39.346Z,1.30
2023-05-06T13:31:12.109Z,1.20
2023-05-06T13:33:45.164Z,1.50
2023-05-06T13:36:14.952Z,3.33
2023-05-06T13:38:55.650Z,1.53
2023-05-06T13:41:25.791Z,1.60
2023-05-06T13:43:58.726Z,1.70
2023-05-06T13:46:36.199Z,1.63
2023-05-06T13:49:05.479Z,1.43
2023-05-06T13:51:36.753Z,1.67
2023-05-06T13:54:08.344Z,1.20
2023-05-06T13:56:38.088Z,1.87
2023-05-06T13:59:10.035Z,2.83
2023-05-06T14:01:49.604Z,1.30
2023-05-06T14:04:18.534Z,1.80
2023-05-06T14:06:49.734Z,1.60
2023-05-06T14:09:21.004Z,1.60
2023-05-06T14:11:50.632Z,1.40
2023-05-06T14:14:20.563Z,2.30
2023-05-06T14:16:53.465Z,1.00
2023-05-06T14:19:22.175Z,0.93
2023-05-06T14:21:52.261Z,2.13
2023-05-06T14:24:21.076Z,4.37
2023-05-06T14:26:58.038Z,2.30
2023-05-06T14:29:34.834Z,1.60
2023-05-06T14:32:19.760Z,1.47
2023-05-06T14:34:50.635Z,3.33
2023-05-06T14:37:24.541Z,2.07
2023-05-06T14:40:00.344Z,1.90
2023-05-06T14:42:28.934Z,1.37
2023-05-06T14:44:58.158Z,1.07
2023-05-06T14:47:29.751Z,1.83
2023-05-06T14:50:01.730Z,1.10
2023-05-06T14:52:29.732Z,2.00
2023-05-06T14:55:01.394Z,1.63
2023-05-06T14:57:30.784Z,1.80
2023-05-06T15:00:01.468Z,1.13
2023-05-06T15:02:33.456Z,1.30
2023-05-06T15:05:11.606Z,1.70
2023-05-06T15:07:44.143Z,0.87
2023-05-06T15:10:22.887Z,1.23
2023-05-06T15:12:56.295Z,0.90
2023-05-06T15:15:25.194Z,1.00
2023-05-06T15:17:59.806Z,0.80
2023-05-06T15:20:30.339Z,0.80
2023-05-06T15:23:01.293Z,0.87
2023-05-06T15:25:38.316Z,1.53
2023-05-06T15:28:10.220Z,1.40
2023-05-06T15:30:38.490Z,1.17
2023-05-06T15:33:09.903Z,0.80
2023-05-06T15:35:43.395Z,0.97
2023-05-06T15:38:15.370Z,1.53
2023-05-06T15:40:52.303Z,0.90
2023-05-06T15:43:24.051Z,1.30
2023-05-06T15:45:58.851Z,1.00
2023-05-06T15:48:43.566Z,0.70
2023-05-06T15:51:12.483Z,3.73
2023-05-06T15:53:44.012Z,1.73
2023-05-06T15:56:18.284Z,4.43
2023-05-06T15:58:47.580Z,0.77
2023-05-06T16:01:23.803Z,1.10
2023-05-06T16:04:13.874Z,0.90
2023-05-06T16:06:44.296Z,1.80
2023-05-06T16:09:17.209Z,1.90
2023-05-06T16:11:45.674Z,1.43
2023-05-06T16:14:18.869Z,1.20
2023-05-06T16:16:47.364Z,1.00
2023-05-06T16:19:32.841Z,1.10
2023-05-06T16:22:00.856Z,6.53
2023-05-06T16:24:31.983Z,2.37
2023-05-06T16:27:02.455Z,5.63
2023-05-06T16:29:30.565Z,2.47
2023-05-06T16:32:01.210Z,1.30
2023-05-06T16:34:30.630Z,3.03
2023-05-06T16:37:00.537Z,1.83
2023-05-06T16:39:31.847Z,1.67
2023-05-06T16:42:00.885Z,1.50
2023-05-06T16:44:30.299Z,3.10
2023-05-06T16:46:58.426Z,1.97
2023-05-06T16:49:30.229Z,1.60
2023-05-06T16:52:00.571Z,2.03
2023-05-06T16:54:33.004Z,2.93
2023-05-06T16:57:03.864Z,1.80
2023-05-06T16:59:38.447Z,2.63
2023-05-06T17:02:07.580Z,1.30
2023-05-06T17:04:44.942Z,3.93
2023-05-06T17:07:19.500Z,1.13
2023-05-06T17:09:51.353Z,1.40
2023-05-06T17:12:24.279Z,2.40
2023-05-06T17:14:52.528Z,1.90
2023-05-06T17:17:29.064Z,1.70
2023-05-06T17:19:59.452Z,1.70
2023-05-06T17:22:36.220Z,1.80
2023-05-06T17:25:08.051Z,2.43
2023-05-06T17:27:38.673Z,1.87
2023-05-06T17:30:15.002Z,3.30
2023-05-06T17:32:44.283Z,2.07
2023-05-06T17:35:14.567Z,3.47
2023-05-06T17:37:51.623Z,3.37
2023-05-06T17:40:28.728Z,3.60
2023-05-06T17:43:12.009Z,3.43
2023-05-06T17:45:49.866Z,3.90
2023-05-06T17:48:23.213Z,3.53
2023-05-06T17:50:53.212Z,3.53
2023-05-06T17:53:26.283Z,4.73
2023-05-06T17:55:58.568Z,3.70
2023-05-06T17:58:30.149Z,3.47
2023-05-06T18:01:08.008Z,4.40
2023-05-06T18:03:39.347Z,3.63
2023-05-06T18:06:11.114Z,4.67
2023-05-06T18:08:52.222Z,5.27
2023-05-06T18:11:26.581Z,3.67
2023-05-06T18:14:00.477Z,3.37
2023-05-06T18:16:31.562Z,3.20
2023-05-06T18:19:14.891Z,3.00
2023-05-06T18:21:51.161Z,3.13
2023-05-06T18:24:21.525Z,3.00
2023-05-06T18:26:55.845Z,3.20
2023-05-06T18:29:25.623Z,2.90
2023-05-06T18:31:55.434Z,5.73
2023-05-06T18:34:29.818Z,6.20
2023-05-06T18:37:02.329Z,4.53
2023-05-06T18:39:44.152Z,3.93
2023-05-06T18:42:17.627Z,5.00
2023-05-06T18:44:50.741Z,4.00
2023-05-06T18:47:28.650Z,4.50
2023-05-06T18:50:01.692Z,5.20
2023-05-06T18:52:33.579Z,3.53
2023-05-06T18:55:16.737Z,4.13
2023-05-06T18:58:00.975Z,4.63
2023-05-06T19:00:30.104Z,5.23
2023-05-06T19:02:59.391Z,7.60
2023-05-06T19:05:30.656Z,4.97
2023-05-06T19:08:09.998Z,4.60
2023-05-06T19:10:43.245Z,5.80
2023-05-06T19:13:20.697Z,4.80
2023-05-06T19:15:51.462Z,5.70
2023-05-06T19:18:23.495Z,3.13
2023-05-06T19:20:53.378Z,6.90
2023-05-06T19:23:27.402Z,4.00
2023-05-06T19:26:06.653Z,3.90
2023-05-06T19:28:41.674Z,4.07
2023-05-06T19:31:16.082Z,5.20
2023-05-06T19:33:47.415Z,3.33
2023-05-06T19:36:25.993Z,6.53
2023-05-06T19:39:02.335Z,6.27
2023-05-06T19:41:37.830Z,4.87
2023-05-06T19:44:09.729Z,7.63
2023-05-06T19:46:39.928Z,3.77
2023-05-06T19:49:10.814Z,5.57
2023-05-06T19:51:47.841Z,4.60
2023-05-06T19:54:19.166Z,3.17
2023-05-06T19:56:56.309Z,3.13
2023-05-06T19:59:26.200Z,2.40
2023-05-06T20:01:55.122Z,2.00
2023-05-06T20:04:24.437Z,3.20
2023-05-06T20:06:56.651Z,2.83
2023-05-06T20:09:30.205Z,3.97
2023-05-06T20:12:01.406Z,2.70
2023-05-06T20:14:32.166Z,5.53
2023-05-06T20:17:03.121Z,2.90
2023-05-06T20:19:32.519Z,3.40
2023-05-06T20:22:02.745Z,2.60
2023-05-06T20:24:35.425Z,3.30
2023-05-06T20:27:11.468Z,2.40
2023-05-06T20:29:43.566Z,3.23
2023-05-06T20:32:13.718Z,3.30
2023-05-06T20:34:43.564Z,2.93
2023-05-06T20:37:12.519Z,2.20
2023-05-06T20:39:42.648Z,2.53
2023-05-06T20:42:14.738Z,3.93
2023-05-06T20:44:51.950Z,5.13
2023-05-06T20:47:23.967Z,2.10
2023-05-06T20:49:52.694Z,2.77
2023-05-06T20:52:23.659Z,4.63
2023-05-06T20:54:55.544Z,3.60
2023-05-06T20:57:36.356Z,3.10
2023-05-06T21:00:08.137Z,4.03
2023-05-06T21:02:41.232Z,2.30
2023-05-06T21:05:12.556Z,5.20
2023-05-06T21:07:44.952Z,2.73
2023-05-06T21:10:15.967Z,2.00
2023-05-06T21:12:55.680Z,1.80
2023-05-06T21:15:24.883Z,1.83
2023-05-06T21:17:55.851Z,2.03
2023-05-06T21:20:24.211Z,3.00
2023-05-06T21:22:55.579Z,2.80
2023-05-06T21:25:24.960Z,2.30
2023-05-06T21:28:05.394Z,2.30
2023-05-06T21:30:35.546Z,2.80
2023-05-06T21:33:06.635Z,2.40
2023-05-06T21:35:36.839Z,2.77
2023-05-06T21:38:09.777Z,3.07
2023-05-06T21:40:42.067Z,2.30
2023-05-06T21:43:13.574Z,2.97
2023-05-06T21:45:48.713Z,2.30
2023-05-06T21:48:26.740Z,2.40
2023-05-06T21:51:02.911Z,2.40
2023-05-06T21:53:39.780Z,2.30
2023-05-06T21:56:19.867Z,3.47
2023-05-06T21:58:59.422Z,3.07
2023-05-06T22:01:32.765Z,2.30
2023-05-06T22:04:01.981Z,2.10
2023-05-06T22:06:30.270Z,3.47
2023-05-06T22:08:58.337Z,2.40
2023-05-06T22:11:27.703Z,4.87
2023-05-06T22:14:02.890Z,5.70
2023-05-06T22:16:31.906Z,2.70
2023-05-06T22:19:00.766Z,3.97
2023-05-06T22:21:30.411Z,2.97
2023-05-06T22:23:59.067Z,2.53
2023-05-06T22:26:32.428Z,2.40
2023-05-06T22:29:11.024Z,4.57
2023-05-06T22:31:47.523Z,2.13
2023-05-06T22:34:21.391Z,3.27
2023-05-06T22:36:51.653Z,4.90
2023-05-06T22:39:21.903Z,2.83
2023-05-06T22:41:51.334Z,2.93
2023-05-06T22:44:23.204Z,3.03
2023-05-06T22:46:53.177Z,4.00
2023-05-06T22:49:28.347Z,5.80
2023-05-06T22:52:09.141Z,2.80
2023-05-06T22:54:40.973Z,2.87
2023-05-06T22:57:10.943Z,5.97
2023-05-06T22:59:40.752Z,3.97
2023-05-06T23:02:08.994Z,3.03
2023-05-06T23:04:39.008Z,2.10
2023-05-06T23:07:11.852Z,2.60
2023-05-06T23:09:45.722Z,2.50
2023-05-06T23:12:19.244Z,2.20
2023-05-06T23:15:03.505Z,2.77
2023-05-06T23:17:33.854Z,3.30
2023-05-06T23:20:07.088Z,2.77
2023-05-06T23:22:37.982Z,3.80
2023-05-06T23:25:08.540Z,3.97
2023-05-06T23:27:42.529Z,4.30
2023-05-06T23:30:17.679Z,2.97
2023-05-06T23:32:48.018Z,3.30
2023-05-06T23:35:24.723Z,3.00
2023-05-06T23:37:55.954Z,3.13
2023-05-06T23:40:27.287Z,2.97
2023-05-06T23:42:57.413Z,4.90
2023-05-06T23:45:30.188Z,3.83
2023-05-06T23:48:00.891Z,6.90
2023-05-06T23:50:31.543Z,4.33
2023-05-06T23:53:04.077Z,9.03
2023-05-06T23:55:40.301Z,8.10
2023-05-06T23:58:10.887Z,5.10
